sensor_id;sensor_type;location;lat;lon;timestamp;P1;durP1;ratioP1;P2;durP2;ratioP2
38637;SDS011;24401;53.034;-3.030;2023-01-25T00:02:11;9.60;;;8.53;;
38637;SDS011;24401;53.034;-3.030;2023-01-25T00:04:42;8.57;;;7.97;;
38637;SDS011;24401;53.034;-3.030;2023-01-25T00:07:12;8.70;;;7.97;;
38637;SDS011;24401;53.034;-3.030;2023-01-25T00:09:42;9.27;;;8.47;;
38637;SDS011;24401;53.034;-3.030;2023-01-25T00:12:12;9.00;;;8.20;;
38637;SDS011;24401;53.034;-3.030;2023-01-25T00:14:43;8.93;;;8.23;;
38637;SDS011;24401;53.034;-3.030;2023-01-25T00:17:14;8.70;;;7.90;;
38637;SDS011;24401;53.034;-3.030;2023-01-25T00:19:44;8.83;;;8.13;;
38637;SDS011;24401;53.034;-3.030;2023-01-25T00:22:14;9.83;;;8.93;;
38637;SDS011;24401;53.034;-3.030;2023-01-25T00:24:44;10.13;;;8.27;;
38637;SDS011;24401;53.034;-3.030;2023-01-25T00:27:14;9.90;;;8.90;;
38637;SDS011;24401;53.034;-3.030;2023-01-25T00:29:46;9.33;;;8.50;;
38637;SDS011;24401;53.034;-3.030;2023-01-25T00:34:50;9.00;;;8.25;;
38637;SDS011;24401;53.034;-3.030;2023-01-25T00:37:34;8.95;;;8.25;;
38637;SDS011;24401;53.034;-3.030;2023-01-25T00:40:05;9.40;;;8.60;;
38637;SDS011;24401;53.034;-3.030;2023-01-25T00:42:36;10.53;;;8.63;;
38637;SDS011;24401;53.034;-3.030;2023-01-25T00:45:06;11.73;;;9.00;;
38637;SDS011;24401;53.034;-3.030;2023-01-25T00:47:37;9.70;;;8.90;;
38637;SDS011;24401;53.034;-3.030;2023-01-25T00:50:07;9.80;;;8.97;;
38637;SDS011;24401;53.034;-3.030;2023-01-25T00:52:38;9.73;;;8.90;;
38637;SDS011;24401;53.034;-3.030;2023-01-25T00:55:08;11.10;;;9.97;;
38637;SDS011;24401;53.034;-3.030;2023-01-25T00:57:39;10.37;;;9.23;;
38637;SDS011;24401;53.034;-3.030;2023-01-25T01:00:09;9.73;;;8.77;;
38637;SDS011;24401;53.034;-3.030;2023-01-25T01:02:39;9.67;;;8.77;;
38637;SDS011;24401;53.034;-3.030;2023-01-25T01:05:10;10.50;;;9.50;;
38637;SDS011;24401;53.034;-3.030;2023-01-25T01:07:40;9.73;;;8.77;;
38637;SDS011;24401;53.034;-3.030;2023-01-25T01:10:10;10.03;;;9.23;;
38637;SDS011;24401;53.034;-3.030;2023-01-25T01:12:40;10.30;;;9.40;;
38637;SDS011;24401;53.034;-3.030;2023-01-25T01:15:11;11.53;;;10.43;;
38637;SDS011;24401;53.034;-3.030;2023-01-25T01:17:41;10.30;;;9.40;;
38637;SDS011;24401;53.034;-3.030;2023-01-25T01:20:11;9.93;;;9.13;;
38637;SDS011;24401;53.034;-3.030;2023-01-25T01:22:42;10.77;;;9.77;;
38637;SDS011;24401;53.034;-3.030;2023-01-25T01:25:12;10.45;;;9.65;;
38637;SDS011;24401;53.034;-3.030;2023-01-25T01:27:42;10.00;;;9.30;;
38637;SDS011;24401;53.034;-3.030;2023-01-25T01:30:13;11.20;;;10.30;;
38637;SDS011;24401;53.034;-3.030;2023-01-25T01:32:43;10.20;;;9.30;;
38637;SDS011;24401;53.034;-3.030;2023-01-25T01:35:13;10.17;;;9.17;;
38637;SDS011;24401;53.034;-3.030;2023-01-25T01:37:43;11.07;;;10.17;;
38637;SDS011;24401;53.034;-3.030;2023-01-25T01:40:14;10.33;;;9.53;;
38637;SDS011;24401;53.034;-3.030;2023-01-25T01:42:58;11.20;;;10.10;;
38637;SDS011;24401;53.034;-3.030;2023-01-25T01:51:02;12.15;;;9.30;;
38637;SDS011;24401;53.034;-3.030;2023-01-25T01:53:34;10.05;;;9.18;;
38637;SDS011;24401;53.034;-3.030;2023-01-25T01:56:05;11.00;;;9.43;;
38637;SDS011;24401;53.034;-3.030;2023-01-25T01:58:36;9.55;;;8.65;;
38637;SDS011;24401;53.034;-3.030;2023-01-25T02:01:07;10.43;;;9.53;;
38637;SDS011;24401;53.034;-3.030;2023-01-25T02:03:37;10.00;;;8.70;;
38637;SDS011;24401;53.034;-3.030;2023-01-25T02:06:15;9.53;;;8.83;;
38637;SDS011;24401;53.034;-3.030;2023-01-25T02:08:49;8.18;;;7.55;;
38637;SDS011;24401;53.034;-3.030;2023-01-25T02:11:21;8.95;;;7.15;;
38637;SDS011;24401;53.034;-3.030;2023-01-25T02:13:51;7.03;;;6.33;;
38637;SDS011;24401;53.034;-3.030;2023-01-25T02:16:23;9.03;;;7.53;;
38637;SDS011;24401;53.034;-3.030;2023-01-25T02:18:55;5.70;;;5.15;;
38637;SDS011;24401;53.034;-3.030;2023-01-25T02:21:26;7.35;;;6.47;;
38637;SDS011;24401;53.034;-3.030;2023-01-25T02:24:11;6.50;;;5.90;;
38637;SDS011;24401;53.034;-3.030;2023-01-25T02:26:45;9.13;;;6.60;;
38637;SDS011;24401;53.034;-3.030;2023-01-25T02:29:15;8.27;;;7.57;;
38637;SDS011;24401;53.034;-3.030;2023-01-25T02:31:46;8.67;;;8.07;;
38637;SDS011;24401;53.034;-3.030;2023-01-25T02:34:18;8.65;;;7.78;;
38637;SDS011;24401;53.034;-3.030;2023-01-25T02:36:48;10.03;;;7.83;;
38637;SDS011;24401;53.034;-3.030;2023-01-25T02:39:18;7.73;;;7.07;;
38637;SDS011;24401;53.034;-3.030;2023-01-25T02:41:49;9.30;;;8.57;;
38637;SDS011;24401;53.034;-3.030;2023-01-25T02:44:23;7.73;;;7.13;;
38637;SDS011;24401;53.034;-3.030;2023-01-25T02:46:54;7.53;;;6.93;;
38637;SDS011;24401;53.034;-3.030;2023-01-25T02:49:24;4.87;;;4.47;;
38637;SDS011;24401;53.034;-3.030;2023-01-25T02:51:55;4.43;;;2.73;;
38637;SDS011;24401;53.034;-3.030;2023-01-25T02:54:26;1.40;;;1.30;;
38637;SDS011;24401;53.034;-3.030;2023-01-25T02:56:56;3.13;;;1.57;;
38637;SDS011;24401;53.034;-3.030;2023-01-25T02:59:26;1.47;;;1.37;;
38637;SDS011;24401;53.034;-3.030;2023-01-25T03:01:57;1.60;;;1.50;;
38637;SDS011;24401;53.034;-3.030;2023-01-25T03:04:27;1.97;;;1.40;;
38637;SDS011;24401;53.034;-3.030;2023-01-25T03:06:57;1.33;;;1.30;;
38637;SDS011;24401;53.034;-3.030;2023-01-25T03:09:27;1.43;;;1.33;;
38637;SDS011;24401;53.034;-3.030;2023-01-25T03:11:58;1.60;;;1.37;;
38637;SDS011;24401;53.034;-3.030;2023-01-25T03:14:28;1.50;;;1.40;;
38637;SDS011;24401;53.034;-3.030;2023-01-25T03:16:58;1.77;;;1.67;;
38637;SDS011;24401;53.034;-3.030;2023-01-25T03:19:28;1.53;;;1.47;;
38637;SDS011;24401;53.034;-3.030;2023-01-25T03:21:58;3.08;;;1.95;;
38637;SDS011;24401;53.034;-3.030;2023-01-25T03:24:29;2.23;;;2.03;;
38637;SDS011;24401;53.034;-3.030;2023-01-25T03:26:59;1.50;;;1.40;;
38637;SDS011;24401;53.034;-3.030;2023-01-25T03:29:43;1.70;;;1.60;;
38637;SDS011;24401;53.034;-3.030;2023-01-25T03:32:14;1.50;;;1.30;;
38637;SDS011;24401;53.034;-3.030;2023-01-25T03:34:44;1.40;;;1.30;;
38637;SDS011;24401;53.034;-3.030;2023-01-25T03:37:14;1.67;;;1.37;;
38637;SDS011;24401;53.034;-3.030;2023-01-25T03:39:44;1.17;;;1.17;;
38637;SDS011;24401;53.034;-3.030;2023-01-25T03:42:15;1.13;;;1.00;;
38637;SDS011;24401;53.034;-3.030;2023-01-25T03:44:45;1.87;;;1.10;;
38637;SDS011;24401;53.034;-3.030;2023-01-25T03:47:15;1.33;;;0.90;;
38637;SDS011;24401;53.034;-3.030;2023-01-25T03:49:45;2.30;;;0.90;;
38637;SDS011;24401;53.034;-3.030;2023-01-25T03:52:16;1.08;;;0.95;;
38637;SDS011;24401;53.034;-3.030;2023-01-25T03:54:46;1.77;;;1.03;;
38637;SDS011;24401;53.034;-3.030;2023-01-25T03:57:16;1.10;;;1.00;;
38637;SDS011;24401;53.034;-3.030;2023-01-25T03:59:46;0.90;;;0.90;;
38637;SDS011;24401;53.034;-3.030;2023-01-25T04:02:17;1.70;;;1.00;;
38637;SDS011;24401;53.034;-3.030;2023-01-25T04:04:47;1.33;;;1.23;;
38637;SDS011;24401;53.034;-3.030;2023-01-25T04:07:17;1.20;;;1.10;;
38637;SDS011;24401;53.034;-3.030;2023-01-25T04:09:48;1.00;;;1.00;;
38637;SDS011;24401;53.034;-3.030;2023-01-25T04:12:19;1.50;;;1.40;;
38637;SDS011;24401;53.034;-3.030;2023-01-25T04:14:49;2.80;;;1.13;;
38637;SDS011;24401;53.034;-3.030;2023-01-25T04:17:19;3.10;;;1.20;;
38637;SDS011;24401;53.034;-3.030;2023-01-25T04:19:49;1.87;;;1.17;;
38637;SDS011;24401;53.034;-3.030;2023-01-25T04:22:20;1.67;;;1.57;;
38637;SDS011;24401;53.034;-3.030;2023-01-25T04:24:50;1.57;;;1.17;;
38637;SDS011;24401;53.034;-3.030;2023-01-25T04:27:20;1.10;;;1.00;;
38637;SDS011;24401;53.034;-3.030;2023-01-25T04:29:50;0.97;;;0.90;;
38637;SDS011;24401;53.034;-3.030;2023-01-25T04:32:21;1.97;;;1.10;;
38637;SDS011;24401;53.034;-3.030;2023-01-25T04:34:51;1.47;;;1.10;;
38637;SDS011;24401;53.034;-3.030;2023-01-25T04:37:21;0.73;;;0.73;;
38637;SDS011;24401;53.034;-3.030;2023-01-25T04:39:51;2.20;;;0.90;;
38637;SDS011;24401;53.034;-3.030;2023-01-25T04:42:21;1.37;;;0.90;;
38637;SDS011;24401;53.034;-3.030;2023-01-25T04:44:52;1.00;;;0.90;;
38637;SDS011;24401;53.034;-3.030;2023-01-25T04:47:22;1.23;;;1.13;;
38637;SDS011;24401;53.034;-3.030;2023-01-25T04:49:52;1.07;;;0.97;;
38637;SDS011;24401;53.034;-3.030;2023-01-25T04:52:22;1.00;;;1.00;;
38637;SDS011;24401;53.034;-3.030;2023-01-25T04:54:53;3.73;;;1.00;;
38637;SDS011;24401;53.034;-3.030;2023-01-25T04:57:23;1.67;;;0.80;;
38637;SDS011;24401;53.034;-3.030;2023-01-25T04:59:53;0.93;;;0.85;;
38637;SDS011;24401;53.034;-3.030;2023-01-25T05:02:25;0.73;;;0.73;;
38637;SDS011;24401;53.034;-3.030;2023-01-25T05:04:55;0.50;;;0.50;;
38637;SDS011;24401;53.034;-3.030;2023-01-25T05:07:25;0.73;;;0.53;;
38637;SDS011;24401;53.034;-3.030;2023-01-25T05:09:55;1.30;;;0.87;;
38637;SDS011;24401;53.034;-3.030;2023-01-25T05:12:26;0.63;;;0.30;;
38637;SDS011;24401;53.034;-3.030;2023-01-25T05:14:56;0.40;;;0.40;;
38637;SDS011;24401;53.034;-3.030;2023-01-25T05:17:26;0.50;;;0.50;;
38637;SDS011;24401;53.034;-3.030;2023-01-25T05:19:56;2.07;;;0.77;;
38637;SDS011;24401;53.034;-3.030;2023-01-25T05:22:27;1.50;;;0.50;;
38637;SDS011;24401;53.034;-3.030;2023-01-25T05:24:57;0.73;;;0.73;;
38637;SDS011;24401;53.034;-3.030;2023-01-25T05:27:28;1.03;;;0.60;;
38637;SDS011;24401;53.034;-3.030;2023-01-25T05:29:58;0.63;;;0.60;;
38637;SDS011;24401;53.034;-3.030;2023-01-25T05:32:28;0.87;;;0.47;;
38637;SDS011;24401;53.034;-3.030;2023-01-25T05:34:58;0.80;;;0.60;;
38637;SDS011;24401;53.034;-3.030;2023-01-25T05:37:29;0.47;;;0.40;;
38637;SDS011;24401;53.034;-3.030;2023-01-25T05:39:59;0.97;;;0.70;;
38637;SDS011;24401;53.034;-3.030;2023-01-25T05:42:30;2.33;;;0.53;;
38637;SDS011;24401;53.034;-3.030;2023-01-25T05:45:00;0.50;;;0.50;;
38637;SDS011;24401;53.034;-3.030;2023-01-25T05:47:30;0.60;;;0.60;;
38637;SDS011;24401;53.034;-3.030;2023-01-25T05:50:00;1.07;;;0.70;;
38637;SDS011;24401;53.034;-3.030;2023-01-25T05:52:30;0.80;;;0.80;;
38637;SDS011;24401;53.034;-3.030;2023-01-25T05:55:01;1.23;;;0.90;;
38637;SDS011;24401;53.034;-3.030;2023-01-25T05:57:31;0.67;;;0.67;;
38637;SDS011;24401;53.034;-3.030;2023-01-25T06:00:02;0.83;;;0.83;;
38637;SDS011;24401;53.034;-3.030;2023-01-25T06:02:32;0.75;;;0.75;;
38637;SDS011;24401;53.034;-3.030;2023-01-25T06:05:03;1.33;;;1.03;;
38637;SDS011;24401;53.034;-3.030;2023-01-25T06:07:34;0.93;;;0.80;;
38637;SDS011;24401;53.034;-3.030;2023-01-25T06:10:07;0.60;;;0.60;;
38637;SDS011;24401;53.034;-3.030;2023-01-25T06:12:38;0.63;;;0.63;;
38637;SDS011;24401;53.034;-3.030;2023-01-25T06:15:09;0.65;;;0.50;;
38637;SDS011;24401;53.034;-3.030;2023-01-25T06:17:39;0.53;;;0.53;;
38637;SDS011;24401;53.034;-3.030;2023-01-25T06:20:10;0.60;;;0.57;;
38637;SDS011;24401;53.034;-3.030;2023-01-25T06:22:40;0.50;;;0.50;;
38637;SDS011;24401;53.034;-3.030;2023-01-25T06:25:10;0.73;;;0.57;;
38637;SDS011;24401;53.034;-3.030;2023-01-25T06:27:40;0.50;;;0.40;;
38637;SDS011;24401;53.034;-3.030;2023-01-25T06:30:11;0.57;;;0.57;;
38637;SDS011;24401;53.034;-3.030;2023-01-25T06:32:41;0.50;;;0.50;;
38637;SDS011;24401;53.034;-3.030;2023-01-25T06:35:11;1.57;;;0.70;;
38637;SDS011;24401;53.034;-3.030;2023-01-25T06:37:41;0.63;;;0.50;;
38637;SDS011;24401;53.034;-3.030;2023-01-25T06:40:12;0.50;;;0.50;;
38637;SDS011;24401;53.034;-3.030;2023-01-25T06:42:42;0.73;;;0.53;;
38637;SDS011;24401;53.034;-3.030;2023-01-25T06:45:12;0.70;;;0.70;;
38637;SDS011;24401;53.034;-3.030;2023-01-25T06:47:42;0.70;;;0.70;;
38637;SDS011;24401;53.034;-3.030;2023-01-25T06:50:13;1.47;;;0.63;;
38637;SDS011;24401;53.034;-3.030;2023-01-25T06:52:49;0.60;;;0.60;;
38637;SDS011;24401;53.034;-3.030;2023-01-25T06:55:19;1.65;;;0.60;;
38637;SDS011;24401;53.034;-3.030;2023-01-25T06:57:50;0.60;;;0.60;;
38637;SDS011;24401;53.034;-3.030;2023-01-25T07:00:20;0.60;;;0.60;;
38637;SDS011;24401;53.034;-3.030;2023-01-25T07:02:50;0.50;;;0.50;;
38637;SDS011;24401;53.034;-3.030;2023-01-25T07:05:20;4.70;;;1.97;;
38637;SDS011;24401;53.034;-3.030;2023-01-25T07:07:53;1.40;;;1.27;;
38637;SDS011;24401;53.034;-3.030;2023-01-25T07:10:23;2.73;;;0.80;;
38637;SDS011;24401;53.034;-3.030;2023-01-25T07:12:53;1.57;;;0.70;;
38637;SDS011;24401;53.034;-3.030;2023-01-25T07:15:23;2.90;;;2.60;;
38637;SDS011;24401;53.034;-3.030;2023-01-25T07:17:53;2.23;;;2.00;;
38637;SDS011;24401;53.034;-3.030;2023-01-25T07:20:24;1.30;;;1.20;;
38637;SDS011;24401;53.034;-3.030;2023-01-25T07:22:54;1.80;;;1.53;;
38637;SDS011;24401;53.034;-3.030;2023-01-25T07:25:24;1.23;;;0.90;;
38637;SDS011;24401;53.034;-3.030;2023-01-25T07:27:54;3.13;;;1.13;;
38637;SDS011;24401;53.034;-3.030;2023-01-25T07:30:25;2.10;;;1.73;;
38637;SDS011;24401;53.034;-3.030;2023-01-25T07:32:57;2.63;;;2.40;;
38637;SDS011;24401;53.034;-3.030;2023-01-25T07:35:28;2.10;;;1.90;;
38637;SDS011;24401;53.034;-3.030;2023-01-25T07:37:58;1.60;;;1.50;;
38637;SDS011;24401;53.034;-3.030;2023-01-25T07:40:28;3.73;;;3.40;;
38637;SDS011;24401;53.034;-3.030;2023-01-25T07:42:59;5.07;;;2.47;;
38637;SDS011;24401;53.034;-3.030;2023-01-25T07:45:29;4.80;;;2.37;;
38637;SDS011;24401;53.034;-3.030;2023-01-25T07:48:00;2.23;;;2.03;;
38637;SDS011;24401;53.034;-3.030;2023-01-25T07:50:37;1.02;;;0.90;;
38637;SDS011;24401;53.034;-3.030;2023-01-25T07:53:08;1.43;;;1.33;;
38637;SDS011;24401;53.034;-3.030;2023-01-25T07:55:38;1.03;;;1.00;;
38637;SDS011;24401;53.034;-3.030;2023-01-25T07:58:09;1.07;;;0.90;;
38637;SDS011;24401;53.034;-3.030;2023-01-25T08:00:40;3.28;;;2.97;;
38637;SDS011;24401;53.034;-3.030;2023-01-25T08:03:10;6.57;;;4.43;;
38637;SDS011;24401;53.034;-3.030;2023-01-25T08:05:43;3.53;;;3.23;;
38637;SDS011;24401;53.034;-3.030;2023-01-25T08:08:14;3.13;;;2.88;;
38637;SDS011;24401;53.034;-3.030;2023-01-25T08:10:44;1.93;;;1.83;;
38637;SDS011;24401;53.034;-3.030;2023-01-25T08:13:14;2.17;;;2.00;;
38637;SDS011;24401;53.034;-3.030;2023-01-25T08:15:51;1.50;;;1.40;;
38637;SDS011;24401;53.034;-3.030;2023-01-25T08:18:21;1.45;;;1.27;;
38637;SDS011;24401;53.034;-3.030;2023-01-25T08:20:52;1.60;;;1.20;;
38637;SDS011;24401;53.034;-3.030;2023-01-25T08:23:22;1.60;;;1.50;;
38637;SDS011;24401;53.034;-3.030;2023-01-25T08:25:53;1.48;;;1.38;;
38637;SDS011;24401;53.034;-3.030;2023-01-25T08:28:25;1.83;;;1.52;;
38637;SDS011;24401;53.034;-3.030;2023-01-25T08:31:03;1.50;;;1.40;;
38637;SDS011;24401;53.034;-3.030;2023-01-25T08:33:33;3.53;;;1.70;;
38637;SDS011;24401;53.034;-3.030;2023-01-25T08:36:04;2.17;;;2.07;;
38637;SDS011;24401;53.034;-3.030;2023-01-25T08:38:35;1.90;;;1.80;;
38637;SDS011;24401;53.034;-3.030;2023-01-25T08:41:12;2.23;;;2.07;;
38637;SDS011;24401;53.034;-3.030;2023-01-25T08:43:43;2.40;;;2.20;;
38637;SDS011;24401;53.034;-3.030;2023-01-25T08:46:16;2.30;;;2.10;;
38637;SDS011;24401;53.034;-3.030;2023-01-25T08:48:47;3.00;;;2.22;;
38637;SDS011;24401;53.034;-3.030;2023-01-25T08:51:17;2.57;;;2.30;;
38637;SDS011;24401;53.034;-3.030;2023-01-25T08:53:47;6.17;;;2.23;;
38637;SDS011;24401;53.034;-3.030;2023-01-25T08:56:17;2.83;;;2.63;;
38637;SDS011;24401;53.034;-3.030;2023-01-25T08:58:48;2.50;;;2.30;;
38637;SDS011;24401;53.034;-3.030;2023-01-25T09:01:19;2.57;;;2.37;;
38637;SDS011;24401;53.034;-3.030;2023-01-25T09:03:49;2.70;;;2.50;;
38637;SDS011;24401;53.034;-3.030;2023-01-25T09:06:20;2.10;;;1.97;;
38637;SDS011;24401;53.034;-3.030;2023-01-25T09:08:50;7.10;;;2.73;;
38637;SDS011;24401;53.034;-3.030;2023-01-25T09:11:21;3.17;;;2.17;;
38637;SDS011;24401;53.034;-3.030;2023-01-25T09:13:51;2.57;;;2.30;;
38637;SDS011;24401;53.034;-3.030;2023-01-25T09:16:22;6.47;;;2.03;;
38637;SDS011;24401;53.034;-3.030;2023-01-25T09:18:58;2.33;;;2.13;;
38637;SDS011;24401;53.034;-3.030;2023-01-25T09:21:29;3.60;;;2.20;;
38637;SDS011;24401;53.034;-3.030;2023-01-25T09:23:59;2.47;;;2.27;;
38637;SDS011;24401;53.034;-3.030;2023-01-25T09:26:30;3.90;;;2.40;;
38637;SDS011;24401;53.034;-3.030;2023-01-25T09:29:00;2.03;;;1.87;;
38637;SDS011;24401;53.034;-3.030;2023-01-25T09:31:30;2.03;;;1.83;;
38637;SDS011;24401;53.034;-3.030;2023-01-25T09:34:01;2.17;;;1.97;;
38637;SDS011;24401;53.034;-3.030;2023-01-25T09:36:31;2.20;;;2.00;;
38637;SDS011;24401;53.034;-3.030;2023-01-25T09:39:01;2.07;;;1.80;;
38637;SDS011;24401;53.034;-3.030;2023-01-25T09:46:43;2.72;;;2.53;;
38637;SDS011;24401;53.034;-3.030;2023-01-25T09:54:37;2.83;;;2.63;;
38637;SDS011;24401;53.034;-3.030;2023-01-25T09:57:23;2.30;;;2.10;;
38637;SDS011;24401;53.034;-3.030;2023-01-25T09:59:55;1.40;;;1.30;;
38637;SDS011;24401;53.034;-3.030;2023-01-25T10:04:58;1.20;;;1.10;;
38637;SDS011;24401;53.034;-3.030;2023-01-25T10:07:33;1.00;;;1.00;;
38637;SDS011;24401;53.034;-3.030;2023-01-25T10:10:22;0.38;;;0.38;;
38637;SDS011;24401;53.034;-3.030;2023-01-25T10:12:55;0.30;;;0.30;;
38637;SDS011;24401;53.034;-3.030;2023-01-25T10:15:36;0.23;;;0.23;;
38637;SDS011;24401;53.034;-3.030;2023-01-25T10:18:22;0.10;;;0.10;;
38637;SDS011;24401;53.034;-3.030;2023-01-25T10:21:00;0.28;;;0.22;;
38637;SDS011;24401;53.034;-3.030;2023-01-25T10:28:56;0.10;;;0.10;;
38637;SDS011;24401;53.034;-3.030;2023-01-25T10:31:31;0.20;;;0.13;;
38637;SDS011;24401;53.034;-3.030;2023-01-25T10:34:07;0.10;;;0.10;;
38637;SDS011;24401;53.034;-3.030;2023-01-25T10:36:42;0.20;;;0.20;;
38637;SDS011;24401;53.034;-3.030;2023-01-25T10:39:14;0.10;;;0.10;;
38637;SDS011;24401;53.034;-3.030;2023-01-25T10:41:49;1.30;;;0.20;;
38637;SDS011;24401;53.034;-3.030;2023-01-25T10:44:20;0.30;;;0.30;;
38637;SDS011;24401;53.034;-3.030;2023-01-25T10:51:51;0.10;;;0.10;;
38637;SDS011;24401;53.034;-3.030;2023-01-25T10:54:21;0.37;;;0.33;;
38637;SDS011;24401;53.034;-3.030;2023-01-25T10:56:52;0.30;;;0.30;;
38637;SDS011;24401;53.034;-3.030;2023-01-25T10:59:23;0.37;;;0.20;;
38637;SDS011;24401;53.034;-3.030;2023-01-25T11:01:54;0.20;;;0.20;;
38637;SDS011;24401;53.034;-3.030;2023-01-25T11:04:31;1.80;;;0.40;;
38637;SDS011;24401;53.034;-3.030;2023-01-25T11:07:02;1.13;;;0.30;;
38637;SDS011;24401;53.034;-3.030;2023-01-25T11:09:35;0.95;;;0.30;;
38637;SDS011;24401;53.034;-3.030;2023-01-25T11:14:47;0.30;;;0.28;;
38637;SDS011;24401;53.034;-3.030;2023-01-25T11:22:36;1.42;;;0.30;;
38637;SDS011;24401;53.034;-3.030;2023-01-25T11:28:19;0.10;;;0.10;;
38637;SDS011;24401;53.034;-3.030;2023-01-25T11:30:50;0.50;;;0.20;;
38637;SDS011;24401;53.034;-3.030;2023-01-25T11:33:21;0.10;;;0.10;;
38637;SDS011;24401;53.034;-3.030;2023-01-25T11:38:22;0.20;;;0.10;;
38637;SDS011;24401;53.034;-3.030;2023-01-25T11:46:26;0.43;;;0.20;;
38637;SDS011;24401;53.034;-3.030;2023-01-25T11:57:01;0.30;;;0.28;;
38637;SDS011;24401;53.034;-3.030;2023-01-25T12:15:48;0.20;;;0.20;;
38637;SDS011;24401;53.034;-3.030;2023-01-25T12:33:50;0.23;;;0.20;;
38637;SDS011;24401;53.034;-3.030;2023-01-25T12:36:26;0.20;;;0.20;;
38637;SDS011;24401;53.034;-3.030;2023-01-25T12:39:00;0.22;;;0.20;;
38637;SDS011;24401;53.034;-3.030;2023-01-25T12:41:40;1.33;;;0.30;;
38637;SDS011;24401;53.034;-3.030;2023-01-25T12:46:50;0.30;;;0.30;;
38637;SDS011;24401;53.034;-3.030;2023-01-25T12:49:28;0.70;;;0.38;;
38637;SDS011;24401;53.034;-3.030;2023-01-25T12:52:00;0.95;;;0.28;;
38637;SDS011;24401;53.034;-3.030;2023-01-25T12:54:32;0.73;;;0.20;;
38637;SDS011;24401;53.034;-3.030;2023-01-25T12:57:06;1.67;;;0.43;;
38637;SDS011;24401;53.034;-3.030;2023-01-25T13:07:25;0.55;;;0.30;;
38637;SDS011;24401;53.034;-3.030;2023-01-25T13:09:58;0.90;;;0.30;;
38637;SDS011;24401;53.034;-3.030;2023-01-25T13:12:49;0.38;;;0.30;;
38637;SDS011;24401;53.034;-3.030;2023-01-25T13:18:50;0.20;;;0.20;;
38637;SDS011;24401;53.034;-3.030;2023-01-25T13:20:56;0.40;;;0.32;;
38637;SDS011;24401;53.034;-3.030;2023-01-25T13:28:57;0.20;;;0.20;;
38637;SDS011;24401;53.034;-3.030;2023-01-25T13:37:14;0.15;;;0.15;;
38637;SDS011;24401;53.034;-3.030;2023-01-25T13:39:47;0.75;;;0.13;;
38637;SDS011;24401;53.034;-3.030;2023-01-25T13:44:49;0.20;;;0.08;;
38637;SDS011;24401;53.034;-3.030;2023-01-25T13:47:24;1.42;;;0.70;;
38637;SDS011;24401;53.034;-3.030;2023-01-25T13:52:54;0.15;;;0.15;;
38637;SDS011;24401;53.034;-3.030;2023-01-25T13:55:25;0.03;;;0.03;;
38637;SDS011;24401;53.034;-3.030;2023-01-25T14:00:51;0.00;;;0.00;;
38637;SDS011;24401;53.034;-3.030;2023-01-25T14:03:27;0.70;;;0.63;;
38637;SDS011;24401;53.034;-3.030;2023-01-25T14:05:58;0.22;;;0.17;;
38637;SDS011;24401;53.034;-3.030;2023-01-25T14:08:31;0.30;;;0.20;;
38637;SDS011;24401;53.034;-3.030;2023-01-25T14:11:01;0.20;;;0.20;;
38637;SDS011;24401;53.034;-3.030;2023-01-25T14:13:32;0.10;;;0.10;;
38637;SDS011;24401;53.034;-3.030;2023-01-25T14:16:02;0.10;;;0.10;;
38637;SDS011;24401;53.034;-3.030;2023-01-25T14:18:35;0.10;;;0.10;;
38637;SDS011;24401;53.034;-3.030;2023-01-25T14:23:40;0.20;;;0.20;;
38637;SDS011;24401;53.034;-3.030;2023-01-25T14:26:28;0.20;;;0.20;;
38637;SDS011;24401;53.034;-3.030;2023-01-25T14:29:00;0.10;;;0.10;;
38637;SDS011;24401;53.034;-3.030;2023-01-25T14:31:31;0.20;;;0.20;;
38637;SDS011;24401;53.034;-3.030;2023-01-25T14:36:33;2.78;;;0.20;;
38637;SDS011;24401;53.034;-3.030;2023-01-25T14:39:12;0.93;;;0.30;;
38637;SDS011;24401;53.034;-3.030;2023-01-25T14:41:42;3.83;;;0.45;;
38637;SDS011;24401;53.034;-3.030;2023-01-25T14:44:15;1.77;;;0.50;;
38637;SDS011;24401;53.034;-3.030;2023-01-25T14:46:45;1.60;;;0.50;;
38637;SDS011;24401;53.034;-3.030;2023-01-25T14:49:22;0.80;;;0.57;;
38637;SDS011;24401;53.034;-3.030;2023-01-25T14:52:04;2.88;;;0.70;;
38637;SDS011;24401;53.034;-3.030;2023-01-25T14:54:36;2.10;;;0.50;;
38637;SDS011;24401;53.034;-3.030;2023-01-25T14:57:28;3.08;;;0.55;;
38637;SDS011;24401;53.034;-3.030;2023-01-25T14:59:58;10.25;;;0.90;;
38637;SDS011;24401;53.034;-3.030;2023-01-25T15:05:00;5.03;;;0.60;;
38637;SDS011;24401;53.034;-3.030;2023-01-25T15:15:28;3.38;;;0.73;;
38637;SDS011;24401;53.034;-3.030;2023-01-25T15:20:33;3.00;;;0.93;;
38637;SDS011;24401;53.034;-3.030;2023-01-25T15:25:53;5.90;;;0.93;;
38637;SDS011;24401;53.034;-3.030;2023-01-25T15:28:27;3.05;;;1.08;;
38637;SDS011;24401;53.034;-3.030;2023-01-25T15:30:58;9.57;;;1.45;;
38637;SDS011;24401;53.034;-3.030;2023-01-25T15:33:28;7.00;;;1.43;;
38637;SDS011;24401;53.034;-3.030;2023-01-25T15:35:59;5.60;;;1.10;;
38637;SDS011;24401;53.034;-3.030;2023-01-25T15:38:29;11.13;;;1.07;;
38637;SDS011;24401;53.034;-3.030;2023-01-25T15:41:00;4.10;;;0.90;;
38637;SDS011;24401;53.034;-3.030;2023-01-25T15:43:30;2.80;;;1.17;;
38637;SDS011;24401;53.034;-3.030;2023-01-25T15:46:00;5.40;;;1.00;;
38637;SDS011;24401;53.034;-3.030;2023-01-25T15:48:34;6.40;;;1.17;;
38637;SDS011;24401;53.034;-3.030;2023-01-25T15:51:05;5.68;;;1.20;;
38637;SDS011;24401;53.034;-3.030;2023-01-25T15:53:36;5.20;;;1.00;;
38637;SDS011;24401;53.034;-3.030;2023-01-25T15:58:40;2.30;;;1.20;;
38637;SDS011;24401;53.034;-3.030;2023-01-25T16:01:10;8.05;;;0.80;;
38637;SDS011;24401;53.034;-3.030;2023-01-25T16:03:41;9.67;;;1.40;;
38637;SDS011;24401;53.034;-3.030;2023-01-25T16:08:47;3.03;;;0.70;;
38637;SDS011;24401;53.034;-3.030;2023-01-25T16:11:17;2.40;;;0.73;;
38637;SDS011;24401;53.034;-3.030;2023-01-25T16:13:47;16.63;;;2.00;;
38637;SDS011;24401;53.034;-3.030;2023-01-25T16:16:20;14.60;;;1.57;;
38637;SDS011;24401;53.034;-3.030;2023-01-25T16:18:50;5.38;;;1.15;;
38637;SDS011;24401;53.034;-3.030;2023-01-25T16:21:21;7.83;;;1.43;;
38637;SDS011;24401;53.034;-3.030;2023-01-25T16:23:51;5.07;;;1.87;;
38637;SDS011;24401;53.034;-3.030;2023-01-25T16:26:25;5.07;;;1.37;;
38637;SDS011;24401;53.034;-3.030;2023-01-25T16:28:56;3.22;;;1.20;;
38637;SDS011;24401;53.034;-3.030;2023-01-25T16:31:26;5.57;;;1.00;;
38637;SDS011;24401;53.034;-3.030;2023-01-25T16:33:56;16.30;;;1.27;;
38637;SDS011;24401;53.034;-3.030;2023-01-25T16:36:27;6.60;;;1.33;;
38637;SDS011;24401;53.034;-3.030;2023-01-25T16:39:04;10.73;;;1.57;;
38637;SDS011;24401;53.034;-3.030;2023-01-25T16:41:35;10.27;;;1.10;;
38637;SDS011;24401;53.034;-3.030;2023-01-25T16:44:05;9.70;;;1.37;;
38637;SDS011;24401;53.034;-3.030;2023-01-25T16:46:36;3.37;;;1.00;;
38637;SDS011;24401;53.034;-3.030;2023-01-25T16:49:06;7.40;;;1.43;;
38637;SDS011;24401;53.034;-3.030;2023-01-25T16:51:39;7.88;;;1.33;;
38637;SDS011;24401;53.034;-3.030;2023-01-25T16:54:10;23.03;;;2.37;;
38637;SDS011;24401;53.034;-3.030;2023-01-25T16:56:40;6.93;;;1.03;;
38637;SDS011;24401;53.034;-3.030;2023-01-25T16:59:11;9.07;;;1.10;;
38637;SDS011;24401;53.034;-3.030;2023-01-25T17:01:41;5.87;;;1.53;;
38637;SDS011;24401;53.034;-3.030;2023-01-25T17:04:11;4.17;;;1.43;;
38637;SDS011;24401;53.034;-3.030;2023-01-25T17:06:43;8.90;;;1.20;;
38637;SDS011;24401;53.034;-3.030;2023-01-25T17:11:44;4.13;;;1.80;;
38637;SDS011;24401;53.034;-3.030;2023-01-25T17:14:15;9.40;;;1.10;;
38637;SDS011;24401;53.034;-3.030;2023-01-25T17:16:47;6.00;;;1.17;;
38637;SDS011;24401;53.034;-3.030;2023-01-25T17:19:20;7.82;;;1.33;;
38637;SDS011;24401;53.034;-3.030;2023-01-25T17:21:50;8.67;;;1.23;;
38637;SDS011;24401;53.034;-3.030;2023-01-25T17:24:20;7.07;;;1.40;;
38637;SDS011;24401;53.034;-3.030;2023-01-25T17:26:54;5.33;;;1.50;;
38637;SDS011;24401;53.034;-3.030;2023-01-25T17:29:25;10.38;;;1.40;;
38637;SDS011;24401;53.034;-3.030;2023-01-25T17:31:56;12.80;;;1.70;;